Melbourne, FL (32940)

7:25 AM EST on December 28, 2014 (GMT -0500)
APRSWXNET Melbourne FL US | Change Station
CLOSE
Current Station
Personal Weather Station
Location: Melbourne, FL
Elevation: 9 ft
Nearby Weather Stations

Elev 9 ft 28.22 °N, 80.67 °W | Updated 31 minutes ago

Partly Cloudy
Partly Cloudy
67 °F
Feels Like 67 °F
N
0
Wind Variable Wind from North
Gusts 0.0 mph

Today
High -- | Low -- °F
--% Chance of Precip.
Yesterday
High -- | Low -- °F
Precip. -- in
7:13 AM 5:35 PM
Waxing Crescent, 47% visible
Pressure 30.15 in
Visibility 0.2 miles
Clouds Clear
Dew Point 67 °F
Humidity 99%
Rainfall 0.00 in
Snow Depth Not available.
UV 0 out of 12
Pollen 7.80 out of 12
Air Quality Not available.
Flu Activity Not available.
SPECI KCOF 281213Z AUTO 21003KT 1/4SM R20/1800FT FG CLR 19/19 A3015 RMK AO2 VIS 1/4V1 1/2 $

More Conditions Fewer Conditions

Pressure 30.15 in
Visibility 0.2 miles
Clouds Clear
Dew Point 67 °F
Humidity 99%
Rainfall 0.00 in
Snow Depth Not available.
UV 0 out of 12
Pollen 7.80 out of 12
Air Quality Not available.
Flu Activity Not available.
SPECI KCOF 281213Z AUTO 21003KT 1/4SM R20/1800FT FG CLR 19/19 A3015 RMK AO2 VIS 1/4V1 1/2 $

More Conditions Fewer Conditions

10-Day Weather Forecast

Almanac

Astronomy

Dec. 28, 2014 Rise Set
Actual Time
Civil Twilight
Nautical Twilight
Astronomical Twilight
Moon
Length of Visible Light
Length of Day
Tomorrow will be .
, % of the Moon is Illuminated

Today's Extremes

State Highs State Lows

Community

WunderPhotos

Upload Photos

1,781,238 photos uploaded!

WunderBlogs® & News

Nearby

Air Quality

  Air Quality AQ Index Pollutant
Not available.

Snow Depth

Station Depth Elevation

Earthquake Activity

City Distance Mag. Time & Date
Minimum magnitude displayed is 2.5.

Coastal Water Temperatures

Place Temperature

Nearby Weather Stations